Maersk Drummond — A8JF3 — position and weather

sailwx.info

Track history (hours):
 
Tides and Currents Weather Stations Pressure Air Temp Water Temp Dewpoint Dewpoint Depression Visibility Wind Speed Wind Dir Waves Ship Positions

Maersk Drummond

Last reported at 2016-Feb-14 00:07 UTC. Time now 2016-Feb-14 03:52 UTC.
Position N 50°28' W 000°28'.

Length 294 m; draft 10.9 m.

Type: Ship (hazmat cat A). MMSI: 636091082.

Date/timePositionNaut miles runAvg speedWind from/ knotsBaromVisibWave heightAir tempDewpointWater temp
2016-Feb-14 00:07N 50°28' W 000°28'813.8
2016-Feb-13 23:33N 50°31' W 000°38'1313.1
2016-Feb-13 22:33N 50°38' W 000°56'1212.0
2016-Feb-13 21:33N 50°46' W 001°10'1010.2
2016-Feb-13 20:33N 50°52' W 001°23'4 2.8
2016-Feb-13 19:08N 50°55' W 001°28'0 0.0
2016-Feb-13 18:20N 50°55' W 001°28'0 0.0
2016-Feb-13 17:26N 50°55' W 001°28'0 0.0
2016-Feb-13 06:33N 50°55' W 001°28'4 4.4
2016-Feb-13 05:33N 50°52' W 001°22'8 8.1
2016-Feb-13 04:33N 50°46' W 001°14'1313.3
2016-Feb-13 03:33N 50°37' W 000°58'7 7.0
2016-Feb-13 02:33N 50°30' W 001°00'12312.3
2016-Feb-12 16:33N 49°46' W 003°59'1312.7
2016-Feb-12 15:33N 49°45' W 004°18'  
Track history (hours):
 
Tides and Currents Weather Stations Pressure Air Temp Water Temp Dewpoint Dewpoint Depression Visibility Wind Speed Wind Dir Waves Ship Positions

Maersk Drummond

Last reported at 2016-Feb-14 00:07 UTC. Time now 2016-Feb-14 03:52 UTC.
Position N 50°28' W 000°28'.

Length 294 m; draft 10.9 m.

Type: Ship (hazmat cat A). MMSI: 636091082.

Date/timePositionNaut miles runAvg speedWind from/ knotsBaromVisibWave heightAir tempDewpointWater temp
2016-Feb-14 00:07N 50°28' W 000°28'813.8
2016-Feb-13 23:33N 50°31' W 000°38'1313.1
2016-Feb-13 22:33N 50°38' W 000°56'1212.0
2016-Feb-13 21:33N 50°46' W 001°10'1010.2
2016-Feb-13 20:33N 50°52' W 001°23'4 2.8
2016-Feb-13 19:08N 50°55' W 001°28'0 0.0
2016-Feb-13 18:20N 50°55' W 001°28'0 0.0
2016-Feb-13 17:26N 50°55' W 001°28'0 0.0
2016-Feb-13 06:33N 50°55' W 001°28'4 4.4
2016-Feb-13 05:33N 50°52' W 001°22'8 8.1
2016-Feb-13 04:33N 50°46' W 001°14'1313.3
2016-Feb-13 03:33N 50°37' W 000°58'7 7.0
2016-Feb-13 02:33N 50°30' W 001°00'12312.3
2016-Feb-12 16:33N 49°46' W 003°59'1312.7
2016-Feb-12 15:33N 49°45' W 004°18'  

Dump ship's entire track history